^^
Station Historical Data
Daily Summary for July 25, 2017 Units:  English    Metric   Both
« Previous Day
Next Day »
Daily Weekly Monthly Yearly Custom
  High: Low: Average:
Temperature: 67.9 °F 58.2 °F 62.7 °F
Dew Point: 61.4 °F 56.3 °F 58.8 °F
Humidity: 95% 79% 87%
Wind Speed: 2.0mph 0.0mph 0.1mph
Wind Gust: 5.0mph - -
Wind- - SSW
Pressure: 30.24 in 29.97 in -
Precipitation: 0.00 in    
Historical Graphs
 
 
Tabular Data for July 25, 2017
Time Temperature Dew Point Pressure Wind Wind Speed Wind Gust Humidity Rainfall Rate (Hourly) Conditions
00:00 59.9 °F 56.6 °F 29.97 in Calm   1.0 mph 89% 0.00 in RA
00:15 59.9 °F 56.6 °F 29.98 in Calm   2.0 mph 89% 0.00 in FEW
00:30 59.9 °F 56.6 °F 29.98 in Calm   1.0 mph 89% 0.00 in FEW
00:45 60.0 °F 56.7 °F 29.98 in Calm   3.0 mph 89% 0.00 in FEW
01:00 60.0 °F 56.4 °F 29.99 in Calm   2.0 mph 88% 0.00 in FEW
02:15 60.0 °F 56.4 °F 30.00 in Calm   1.0 mph 88% 0.00 in FEW
02:30 59.7 °F 56.5 °F 29.99 in Calm   2.0 mph 89% 0.00 in FEW
02:45 59.2 °F 56.3 °F 29.99 in Calm   4.0 mph 90% 0.00 in FEW
03:00 59.0 °F 56.4 °F 30.00 in Calm   2.0 mph 91% 0.00 in FEW
03:15 58.8 °F 56.5 °F 29.99 in Calm   2.0 mph 92% 0.00 in BKN
03:30 58.4 °F 56.4 °F 29.99 in Calm   2.0 mph 93% 0.00 in BKN
03:45 58.3 °F 56.6 °F 29.99 in Calm   1.0 mph 94% 0.00 in BKN
04:00 58.2 °F 56.8 °F 29.99 in Calm   4.0 mph 95% 0.00 in BKN
04:15 58.3 °F 56.9 °F 29.99 in Calm   1.0 mph 95% 0.00 in -DZ
04:30 58.3 °F 56.9 °F 30.00 in Calm   2.0 mph 95% 0.00 in -DZ
04:45 58.5 °F 57.0 °F 30.00 in Calm   1.0 mph 95% 0.00 in -DZ
05:00 58.4 °F 57.0 °F 30.01 in Calm   3.0 mph 95% 0.00 in -DZ
05:15 58.4 °F 57.0 °F 30.01 in Calm   2.0 mph 95% 0.00 in BKN
05:30 58.5 °F 57.1 °F 30.01 in Calm     95% 0.00 in BKN
05:45 58.5 °F 57.1 °F 30.02 in Calm   1.0 mph 95% 0.00 in BKN
06:00 58.6 °F 56.9 °F 30.02 in NW 1.0 mph 2.0 mph 94% 0.00 in BKN
06:15 58.7 °F 57.0 °F 30.03 in Calm   2.0 mph 94% 0.00 in BKN
06:30 58.8 °F 57.1 °F 30.03 in Calm   2.0 mph 94% 0.00 in BKN
06:45 58.9 °F 57.2 °F 30.04 in Calm   2.0 mph 94% 0.00 in BKN
07:00 59.0 °F 57.3 °F 30.04 in Calm   1.0 mph 94% 0.00 in BKN
07:15 59.0 °F 57.0 °F 30.05 in Calm   3.0 mph 93% 0.00 in FEW
07:45 59.5 °F 57.5 °F 30.05 in Calm   1.0 mph 93% 0.00 in FEW
08:00 60.0 °F 57.4 °F 30.05 in WNW 2.0 mph 3.0 mph 91% 0.00 in FEW
08:15 60.1 °F 57.5 °F 30.06 in Calm   3.0 mph 91% 0.00 in BKN
08:30 60.8 °F 57.8 °F 30.06 in Calm   2.0 mph 90% 0.00 in BKN
08:45 60.9 °F 57.6 °F 30.07 in Calm   3.0 mph 89% 0.00 in BKN
09:00 61.1 °F 57.8 °F 30.07 in Calm   4.0 mph 89% 0.00 in BKN
09:15 61.3 °F 58.0 °F 30.07 in NNE 1.0 mph 3.0 mph 89% 0.00 in OVC
09:30 61.7 °F 58.1 °F 30.07 in Calm   2.0 mph 88% 0.00 in OVC
09:45 61.8 °F 57.9 °F 30.08 in Calm   5.0 mph 87% 0.00 in OVC
10:00 62.0 °F 58.4 °F 30.09 in Calm   3.0 mph 88% 0.00 in OVC
10:15 62.0 °F 58.4 °F 30.09 in Calm   3.0 mph 88% 0.00 in BKN
10:45 62.5 °F 58.6 °F 30.09 in Calm   2.0 mph 87% 0.00 in BKN
11:00 62.2 °F 58.6 °F 30.10 in Calm   4.0 mph 88% 0.00 in BKN
11:15 62.4 °F 58.4 °F 30.11 in Calm   3.0 mph 87% 0.00 in BKN
11:30 62.6 °F 58.7 °F 30.11 in WSW 1.0 mph 2.0 mph 87% 0.00 in BKN
11:45 62.5 °F 58.6 °F 30.11 in Calm   3.0 mph 87% 0.00 in BKN
12:00 63.0 °F 59.1 °F 30.11 in WNW 1.0 mph 4.0 mph 87% 0.00 in BKN
12:15 63.5 °F 59.2 °F 30.12 in Calm   4.0 mph 86% 0.00 in BKN
12:30 64.0 °F 59.4 °F 30.12 in Calm   3.0 mph 85% 0.00 in BKN
12:45 64.0 °F 59.4 °F 30.12 in Calm   3.0 mph 85% 0.00 in BKN
13:00 64.5 °F 59.5 °F 30.12 in Calm   2.0 mph 84% 0.00 in BKN
13:15 64.6 °F 59.3 °F 30.13 in Calm   2.0 mph 83% 0.00 in BKN
13:30 64.6 °F 59.3 °F 30.13 in Calm   2.0 mph 83% 0.00 in BKN
13:45 64.6 °F 59.3 °F 30.13 in Calm   2.0 mph 83% 0.00 in BKN
14:00 64.8 °F 59.9 °F 30.13 in Calm   3.0 mph 84% 0.00 in BKN
14:15 65.6 °F 60.3 °F 30.13 in Calm   3.0 mph 83% 0.00 in OVC
14:30 66.1 °F 60.4 °F 30.13 in Calm   2.0 mph 82% 0.00 in OVC
14:45 66.2 °F 60.5 °F 30.14 in Calm   2.0 mph 82% 0.00 in OVC
15:00 65.8 °F 60.5 °F 30.14 in Calm   3.0 mph 83% 0.00 in OVC
15:15 66.0 °F 60.4 °F 30.14 in NNE 1.0 mph 4.0 mph 82% 0.00 in OVC
15:30 66.6 °F 60.9 °F 30.14 in Calm   4.0 mph 82% 0.00 in OVC
16:00 66.6 °F 61.0 °F 30.14 in WNW 1.0 mph 4.0 mph 82% 0.00 in OVC
16:15 67.0 °F 60.6 °F 30.15 in Calm   2.0 mph 80% 0.00 in BKN
16:30 67.1 °F 61.1 °F 30.15 in North 1.0 mph 3.0 mph 81% 0.00 in BKN
16:45 67.9 °F 61.1 °F 30.15 in Calm   2.0 mph 79% 0.00 in BKN
17:00 67.4 °F 61.4 °F 30.15 in Calm   3.0 mph 81% 0.00 in BKN
17:15 67.1 °F 61.1 °F 30.15 in WNW 1.0 mph 2.0 mph 81% 0.00 in BKN
17:30 66.7 °F 61.0 °F 30.16 in Calm   1.0 mph 82% 0.00 in BKN
17:45 66.4 °F 61.1 °F 30.16 in Calm   1.0 mph 83% 0.00 in BKN
18:00 66.0 °F 61.0 °F 30.16 in Calm   1.0 mph 84% 0.00 in BKN
18:15 65.9 °F 61.3 °F 30.17 in Calm     85% 0.00 in BKN
18:30 66.0 °F 61.4 °F 30.17 in Calm   1.0 mph 85% 0.00 in BKN
18:45 66.4 °F 61.4 °F 30.17 in Calm   1.0 mph 84% 0.00 in BKN
19:00 66.3 °F 61.0 °F 30.17 in West 1.0 mph 2.0 mph 83% 0.00 in BKN
19:15 66.1 °F 61.1 °F 30.17 in Calm   3.0 mph 84% 0.00 in BKN
19:30 66.1 °F 60.8 °F 30.18 in Calm   1.0 mph 83% 0.00 in BKN
19:45 65.5 °F 60.6 °F 30.18 in Calm   1.0 mph 84% 0.00 in BKN
20:00 65.0 °F 60.4 °F 30.19 in Calm   3.0 mph 85% 0.00 in BKN
20:15 64.9 °F 60.3 °F 30.19 in Calm   2.0 mph 85% 0.00 in BKN
20:45 64.2 °F 60.3 °F 30.20 in Calm   2.0 mph 87% 0.00 in BKN
21:00 63.9 °F 60.0 °F 30.21 in Calm   1.0 mph 87% 0.00 in BKN
21:15 63.8 °F 59.9 °F 30.21 in Calm     87% 0.00 in BKN
21:30 63.8 °F 60.2 °F 30.22 in Calm   1.0 mph 88% 0.00 in BKN
22:00 63.9 °F 60.0 °F 30.22 in Calm   2.0 mph 87% 0.00 in BKN
22:15 64.0 °F 59.7 °F 30.22 in Calm   1.0 mph 86% 0.00 in BKN
22:30 63.9 °F 59.3 °F 30.22 in Calm   2.0 mph 85% 0.00 in BKN
22:45 63.9 °F 59.0 °F 30.23 in Calm     84% 0.00 in BKN
23:00 63.8 °F 58.9 °F 30.23 in Calm   1.0 mph 84% 0.00 in BKN
23:15 63.7 °F 58.8 °F 30.23 in Calm   1.0 mph 84% 0.00 in BKN
23:30 63.7 °F 58.8 °F 30.24 in Calm   2.0 mph 84% 0.00 in BKN
23:45 63.7 °F 58.8 °F 30.24 in Calm   1.0 mph 84% 0.00 in BKN
TarryTown NY Weather
Compliments of Weather Underground - 1.5 mb